sensor_id;sensor_type;location;lat;lon;timestamp;P1;durP1;ratioP1;P2;durP2;ratioP2
62696;SDS011;48761;42.680;23.312;2022-10-16T00:01:51;16.98;;;11.05;;
62696;SDS011;48761;42.680;23.312;2022-10-16T00:04:17;17.35;;;10.95;;
62696;SDS011;48761;42.680;23.312;2022-10-16T00:06:43;19.25;;;11.70;;
62696;SDS011;48761;42.680;23.312;2022-10-16T00:09:09;17.88;;;10.95;;
62696;SDS011;48761;42.680;23.312;2022-10-16T00:11:37;16.73;;;10.68;;
62696;SDS011;48761;42.680;23.312;2022-10-16T00:14:05;21.35;;;10.90;;
62696;SDS011;48761;42.680;23.312;2022-10-16T00:16:33;16.38;;;10.75;;
62696;SDS011;48761;42.680;23.312;2022-10-16T00:18:59;16.00;;;10.70;;
62696;SDS011;48761;42.680;23.312;2022-10-16T00:21:27;20.98;;;11.13;;
62696;SDS011;48761;42.680;23.312;2022-10-16T00:23:55;17.63;;;11.00;;
62696;SDS011;48761;42.680;23.312;2022-10-16T00:26:22;18.90;;;10.80;;
62696;SDS011;48761;42.680;23.312;2022-10-16T00:28:49;16.38;;;11.00;;
62696;SDS011;48761;42.680;23.312;2022-10-16T00:31:17;14.07;;;10.27;;
62696;SDS011;48761;42.680;23.312;2022-10-16T00:33:44;17.63;;;10.82;;
62696;SDS011;48761;42.680;23.312;2022-10-16T00:36:11;18.90;;;10.85;;
62696;SDS011;48761;42.680;23.312;2022-10-16T00:38:39;14.38;;;10.73;;
62696;SDS011;48761;42.680;23.312;2022-10-16T00:41:05;14.50;;;10.48;;
62696;SDS011;48761;42.680;23.312;2022-10-16T00:46:04;15.93;;;10.60;;
62696;SDS011;48761;42.680;23.312;2022-10-16T00:48:36;15.15;;;10.30;;
62696;SDS011;48761;42.680;23.312;2022-10-16T00:51:02;18.02;;;10.40;;
62696;SDS011;48761;42.680;23.312;2022-10-16T00:53:32;16.95;;;10.45;;
62696;SDS011;48761;42.680;23.312;2022-10-16T00:55:59;15.10;;;10.13;;
62696;SDS011;48761;42.680;23.312;2022-10-16T00:58:25;16.95;;;10.00;;
62696;SDS011;48761;42.680;23.312;2022-10-16T01:00:51;17.33;;;10.25;;
62696;SDS011;48761;42.680;23.312;2022-10-16T01:03:25;17.25;;;9.85;;
62696;SDS011;48761;42.680;23.312;2022-10-16T01:05:55;15.50;;;9.77;;
62696;SDS011;48761;42.680;23.312;2022-10-16T01:08:43;15.80;;;9.80;;
62696;SDS011;48761;42.680;23.312;2022-10-16T01:11:22;18.10;;;10.88;;
62696;SDS011;48761;42.680;23.312;2022-10-16T01:13:59;15.02;;;10.35;;
62696;SDS011;48761;42.680;23.312;2022-10-16T01:19:12;18.92;;;10.85;;
62696;SDS011;48761;42.680;23.312;2022-10-16T01:21:44;17.38;;;11.27;;
62696;SDS011;48761;42.680;23.312;2022-10-16T01:32:26;15.43;;;11.00;;
62696;SDS011;48761;42.680;23.312;2022-10-16T01:35:05;16.13;;;11.45;;
62696;SDS011;48761;42.680;23.312;2022-10-16T01:37:51;16.70;;;11.80;;
62696;SDS011;48761;42.680;23.312;2022-10-16T01:40:21;17.27;;;12.02;;
62696;SDS011;48761;42.680;23.312;2022-10-16T01:43:02;17.20;;;11.70;;
62696;SDS011;48761;42.680;23.312;2022-10-16T01:45:33;17.33;;;12.13;;
62696;SDS011;48761;42.680;23.312;2022-10-16T01:48:01;17.23;;;11.80;;
62696;SDS011;48761;42.680;23.312;2022-10-16T01:50:29;17.25;;;12.43;;
62696;SDS011;48761;42.680;23.312;2022-10-16T01:52:58;15.48;;;11.40;;
62696;SDS011;48761;42.680;23.312;2022-10-16T01:55:28;16.17;;;11.35;;
62696;SDS011;48761;42.680;23.312;2022-10-16T01:57:57;16.58;;;11.80;;
62696;SDS011;48761;42.680;23.312;2022-10-16T02:00:25;16.80;;;11.13;;
62696;SDS011;48761;42.680;23.312;2022-10-16T02:02:53;18.20;;;11.43;;
62696;SDS011;48761;42.680;23.312;2022-10-16T02:05:22;17.73;;;11.57;;
62696;SDS011;48761;42.680;23.312;2022-10-16T02:07:50;16.83;;;11.32;;
62696;SDS011;48761;42.680;23.312;2022-10-16T02:10:16;19.77;;;11.77;;
62696;SDS011;48761;42.680;23.312;2022-10-16T02:12:44;16.02;;;11.57;;
62696;SDS011;48761;42.680;23.312;2022-10-16T02:15:15;17.90;;;11.95;;
62696;SDS011;48761;42.680;23.312;2022-10-16T02:17:41;17.95;;;12.07;;
62696;SDS011;48761;42.680;23.312;2022-10-16T02:20:07;19.60;;;12.07;;
62696;SDS011;48761;42.680;23.312;2022-10-16T02:22:34;19.05;;;12.75;;
62696;SDS011;48761;42.680;23.312;2022-10-16T02:25:06;17.98;;;12.05;;
62696;SDS011;48761;42.680;23.312;2022-10-16T02:30:09;17.77;;;12.15;;
62696;SDS011;48761;42.680;23.312;2022-10-16T02:32:41;18.35;;;12.38;;
62696;SDS011;48761;42.680;23.312;2022-10-16T02:35:10;17.17;;;11.85;;
62696;SDS011;48761;42.680;23.312;2022-10-16T02:37:37;18.00;;;11.98;;
62696;SDS011;48761;42.680;23.312;2022-10-16T02:40:05;18.10;;;11.43;;
62696;SDS011;48761;42.680;23.312;2022-10-16T02:42:35;17.98;;;11.63;;
62696;SDS011;48761;42.680;23.312;2022-10-16T02:45:04;18.55;;;12.50;;
62696;SDS011;48761;42.680;23.312;2022-10-16T02:47:30;18.67;;;12.48;;
62696;SDS011;48761;42.680;23.312;2022-10-16T02:49:56;20.30;;;12.90;;
62696;SDS011;48761;42.680;23.312;2022-10-16T02:52:22;16.02;;;12.18;;
62696;SDS011;48761;42.680;23.312;2022-10-16T02:54:48;18.45;;;12.73;;
62696;SDS011;48761;42.680;23.312;2022-10-16T02:57:14;16.00;;;12.20;;
62696;SDS011;48761;42.680;23.312;2022-10-16T02:59:39;15.95;;;11.73;;
62696;SDS011;48761;42.680;23.312;2022-10-16T03:02:06;19.42;;;12.27;;
62696;SDS011;48761;42.680;23.312;2022-10-16T03:04:33;18.42;;;12.55;;
62696;SDS011;48761;42.680;23.312;2022-10-16T03:06:59;16.98;;;11.82;;
62696;SDS011;48761;42.680;23.312;2022-10-16T03:09:25;17.10;;;11.32;;
62696;SDS011;48761;42.680;23.312;2022-10-16T03:11:51;20.90;;;11.43;;
62696;SDS011;48761;42.680;23.312;2022-10-16T03:14:17;17.55;;;11.52;;
62696;SDS011;48761;42.680;23.312;2022-10-16T03:16:43;18.52;;;11.45;;
62696;SDS011;48761;42.680;23.312;2022-10-16T03:19:09;18.52;;;10.98;;
62696;SDS011;48761;42.680;23.312;2022-10-16T03:21:35;17.15;;;10.65;;
62696;SDS011;48761;42.680;23.312;2022-10-16T03:24:01;17.67;;;12.23;;
62696;SDS011;48761;42.680;23.312;2022-10-16T03:26:29;19.27;;;12.15;;
62696;SDS011;48761;42.680;23.312;2022-10-16T03:28:55;19.17;;;12.90;;
62696;SDS011;48761;42.680;23.312;2022-10-16T03:31:21;19.02;;;13.40;;
62696;SDS011;48761;42.680;23.312;2022-10-16T03:33:47;20.60;;;13.48;;
62696;SDS011;48761;42.680;23.312;2022-10-16T03:36:13;21.98;;;13.52;;
62696;SDS011;48761;42.680;23.312;2022-10-16T03:38:39;19.27;;;14.05;;
62696;SDS011;48761;42.680;23.312;2022-10-16T03:41:05;20.92;;;12.93;;
62696;SDS011;48761;42.680;23.312;2022-10-16T03:43:31;18.15;;;12.45;;
62696;SDS011;48761;42.680;23.312;2022-10-16T03:45:57;18.17;;;11.90;;
62696;SDS011;48761;42.680;23.312;2022-10-16T03:48:23;20.88;;;12.23;;
62696;SDS011;48761;42.680;23.312;2022-10-16T03:50:49;20.20;;;12.57;;
62696;SDS011;48761;42.680;23.312;2022-10-16T03:53:15;17.23;;;12.65;;
62696;SDS011;48761;42.680;23.312;2022-10-16T03:55:41;18.58;;;12.63;;
62696;SDS011;48761;42.680;23.312;2022-10-16T03:58:08;16.45;;;11.85;;
62696;SDS011;48761;42.680;23.312;2022-10-16T04:00:34;20.38;;;11.82;;
62696;SDS011;48761;42.680;23.312;2022-10-16T04:03:00;19.27;;;12.05;;
62696;SDS011;48761;42.680;23.312;2022-10-16T04:05:26;18.33;;;12.52;;
62696;SDS011;48761;42.680;23.312;2022-10-16T04:07:52;21.35;;;12.60;;
62696;SDS011;48761;42.680;23.312;2022-10-16T04:10:18;18.85;;;12.57;;
62696;SDS011;48761;42.680;23.312;2022-10-16T04:12:44;19.05;;;12.38;;
62696;SDS011;48761;42.680;23.312;2022-10-16T04:15:10;18.95;;;11.75;;
62696;SDS011;48761;42.680;23.312;2022-10-16T04:17:36;19.15;;;12.30;;
62696;SDS011;48761;42.680;23.312;2022-10-16T04:20:02;19.52;;;11.27;;
62696;SDS011;48761;42.680;23.312;2022-10-16T04:22:28;17.45;;;11.43;;
62696;SDS011;48761;42.680;23.312;2022-10-16T04:24:54;16.23;;;10.82;;
62696;SDS011;48761;42.680;23.312;2022-10-16T04:27:20;19.83;;;11.43;;
62696;SDS011;48761;42.680;23.312;2022-10-16T04:29:46;18.75;;;11.50;;
62696;SDS011;48761;42.680;23.312;2022-10-16T04:32:12;16.77;;;11.52;;
62696;SDS011;48761;42.680;23.312;2022-10-16T04:34:38;17.27;;;10.70;;
62696;SDS011;48761;42.680;23.312;2022-10-16T04:37:05;16.10;;;10.63;;
62696;SDS011;48761;42.680;23.312;2022-10-16T04:39:31;19.38;;;11.00;;
62696;SDS011;48761;42.680;23.312;2022-10-16T04:41:57;16.92;;;10.80;;
62696;SDS011;48761;42.680;23.312;2022-10-16T04:44:23;22.38;;;11.07;;
62696;SDS011;48761;42.680;23.312;2022-10-16T04:46:52;18.77;;;11.30;;
62696;SDS011;48761;42.680;23.312;2022-10-16T04:49:18;23.70;;;11.57;;
62696;SDS011;48761;42.680;23.312;2022-10-16T04:51:44;15.68;;;10.88;;
62696;SDS011;48761;42.680;23.312;2022-10-16T04:54:09;16.73;;;11.27;;
62696;SDS011;48761;42.680;23.312;2022-10-16T04:56:35;19.92;;;10.68;;
62696;SDS011;48761;42.680;23.312;2022-10-16T04:59:01;16.35;;;11.05;;
62696;SDS011;48761;42.680;23.312;2022-10-16T05:01:27;14.90;;;10.30;;
62696;SDS011;48761;42.680;23.312;2022-10-16T05:03:53;14.18;;;9.90;;
62696;SDS011;48761;42.680;23.312;2022-10-16T05:06:19;16.95;;;10.25;;
62696;SDS011;48761;42.680;23.312;2022-10-16T05:08:45;15.75;;;10.10;;
62696;SDS011;48761;42.680;23.312;2022-10-16T05:11:11;18.73;;;11.02;;
62696;SDS011;48761;42.680;23.312;2022-10-16T05:13:37;13.93;;;9.80;;
62696;SDS011;48761;42.680;23.312;2022-10-16T05:16:03;13.15;;;9.50;;
62696;SDS011;48761;42.680;23.312;2022-10-16T05:18:29;16.85;;;9.70;;
62696;SDS011;48761;42.680;23.312;2022-10-16T05:20:55;17.75;;;9.30;;
62696;SDS011;48761;42.680;23.312;2022-10-16T05:23:20;13.68;;;10.20;;
62696;SDS011;48761;42.680;23.312;2022-10-16T05:25:56;14.68;;;9.85;;
62696;SDS011;48761;42.680;23.312;2022-10-16T05:28:23;18.48;;;10.00;;
62696;SDS011;48761;42.680;23.312;2022-10-16T05:30:50;14.88;;;9.50;;
62696;SDS011;48761;42.680;23.312;2022-10-16T05:33:16;15.07;;;9.35;;
62696;SDS011;48761;42.680;23.312;2022-10-16T05:35:42;15.02;;;9.68;;
62696;SDS011;48761;42.680;23.312;2022-10-16T05:38:08;18.98;;;10.15;;
62696;SDS011;48761;42.680;23.312;2022-10-16T05:40:34;13.10;;;8.57;;
62696;SDS011;48761;42.680;23.312;2022-10-16T05:43:00;15.75;;;9.38;;
62696;SDS011;48761;42.680;23.312;2022-10-16T05:45:26;14.77;;;9.30;;
62696;SDS011;48761;42.680;23.312;2022-10-16T05:47:52;16.45;;;9.65;;
62696;SDS011;48761;42.680;23.312;2022-10-16T05:50:18;21.00;;;10.02;;
62696;SDS011;48761;42.680;23.312;2022-10-16T05:52:44;14.50;;;9.63;;
62696;SDS011;48761;42.680;23.312;2022-10-16T05:55:10;15.50;;;9.30;;
62696;SDS011;48761;42.680;23.312;2022-10-16T05:57:36;16.42;;;8.80;;
62696;SDS011;48761;42.680;23.312;2022-10-16T06:00:02;14.80;;;9.43;;
62696;SDS011;48761;42.680;23.312;2022-10-16T06:02:29;14.32;;;9.35;;
62696;SDS011;48761;42.680;23.312;2022-10-16T06:04:55;15.30;;;10.05;;
62696;SDS011;48761;42.680;23.312;2022-10-16T06:07:21;13.10;;;9.30;;
62696;SDS011;48761;42.680;23.312;2022-10-16T06:09:53;18.00;;;9.68;;
62696;SDS011;48761;42.680;23.312;2022-10-16T06:12:19;13.65;;;9.05;;
62696;SDS011;48761;42.680;23.312;2022-10-16T06:14:50;15.80;;;9.65;;
62696;SDS011;48761;42.680;23.312;2022-10-16T06:17:16;17.15;;;9.13;;
62696;SDS011;48761;42.680;23.312;2022-10-16T06:19:42;13.30;;;9.38;;
62696;SDS011;48761;42.680;23.312;2022-10-16T06:22:08;14.50;;;9.52;;
62696;SDS011;48761;42.680;23.312;2022-10-16T06:24:34;15.05;;;9.77;;
62696;SDS011;48761;42.680;23.312;2022-10-16T06:27:00;13.27;;;10.05;;
62696;SDS011;48761;42.680;23.312;2022-10-16T06:29:26;13.07;;;9.52;;
62696;SDS011;48761;42.680;23.312;2022-10-16T06:31:52;15.52;;;10.05;;
62696;SDS011;48761;42.680;23.312;2022-10-16T06:34:17;14.10;;;9.80;;
62696;SDS011;48761;42.680;23.312;2022-10-16T06:36:43;13.77;;;10.18;;
62696;SDS011;48761;42.680;23.312;2022-10-16T06:39:09;15.50;;;10.13;;
62696;SDS011;48761;42.680;23.312;2022-10-16T06:41:35;15.48;;;10.00;;
62696;SDS011;48761;42.680;23.312;2022-10-16T06:44:04;17.10;;;10.82;;
62696;SDS011;48761;42.680;23.312;2022-10-16T06:46:31;16.65;;;10.13;;
62696;SDS011;48761;42.680;23.312;2022-10-16T06:48:56;15.98;;;9.88;;
62696;SDS011;48761;42.680;23.312;2022-10-16T06:51:23;13.63;;;9.88;;
62696;SDS011;48761;42.680;23.312;2022-10-16T06:53:52;18.50;;;10.15;;
62696;SDS011;48761;42.680;23.312;2022-10-16T06:56:20;18.70;;;11.30;;
62696;SDS011;48761;42.680;23.312;2022-10-16T06:58:48;16.38;;;10.77;;
62696;SDS011;48761;42.680;23.312;2022-10-16T07:01:15;17.95;;;10.85;;
62696;SDS011;48761;42.680;23.312;2022-10-16T07:03:43;16.42;;;10.73;;
62696;SDS011;48761;42.680;23.312;2022-10-16T07:06:12;15.45;;;10.68;;
62696;SDS011;48761;42.680;23.312;2022-10-16T07:08:41;13.90;;;10.43;;
62696;SDS011;48761;42.680;23.312;2022-10-16T07:11:09;13.52;;;10.18;;
62696;SDS011;48761;42.680;23.312;2022-10-16T07:13:40;16.73;;;10.23;;
62696;SDS011;48761;42.680;23.312;2022-10-16T07:18:34;16.20;;;11.20;;
62696;SDS011;48761;42.680;23.312;2022-10-16T07:21:07;19.63;;;11.55;;
62696;SDS011;48761;42.680;23.312;2022-10-16T07:23:44;19.10;;;12.00;;
62696;SDS011;48761;42.680;23.312;2022-10-16T07:26:10;20.40;;;13.02;;
62696;SDS011;48761;42.680;23.312;2022-10-16T07:28:37;19.17;;;12.40;;
62696;SDS011;48761;42.680;23.312;2022-10-16T07:31:05;24.38;;;12.88;;
62696;SDS011;48761;42.680;23.312;2022-10-16T07:33:33;21.67;;;12.95;;
62696;SDS011;48761;42.680;23.312;2022-10-16T07:36:00;18.35;;;12.38;;
62696;SDS011;48761;42.680;23.312;2022-10-16T07:38:26;26.90;;;14.55;;
62696;SDS011;48761;42.680;23.312;2022-10-16T07:40:56;20.35;;;12.98;;
62696;SDS011;48761;42.680;23.312;2022-10-16T07:43:30;19.13;;;12.85;;
62696;SDS011;48761;42.680;23.312;2022-10-16T07:45:57;17.27;;;12.77;;
62696;SDS011;48761;42.680;23.312;2022-10-16T07:48:24;19.10;;;12.93;;
62696;SDS011;48761;42.680;23.312;2022-10-16T07:50:56;19.45;;;12.32;;
62696;SDS011;48761;42.680;23.312;2022-10-16T07:53:26;18.73;;;12.75;;
62696;SDS011;48761;42.680;23.312;2022-10-16T07:55:56;18.45;;;12.10;;
62696;SDS011;48761;42.680;23.312;2022-10-16T07:58:23;20.05;;;11.80;;
62696;SDS011;48761;42.680;23.312;2022-10-16T08:00:49;18.23;;;12.57;;
62696;SDS011;48761;42.680;23.312;2022-10-16T08:03:15;18.92;;;11.48;;
62696;SDS011;48761;42.680;23.312;2022-10-16T08:05:41;17.35;;;10.82;;
62696;SDS011;48761;42.680;23.312;2022-10-16T08:08:10;12.65;;;9.70;;
62696;SDS011;48761;42.680;23.312;2022-10-16T08:10:38;16.63;;;9.60;;
62696;SDS011;48761;42.680;23.312;2022-10-16T08:13:04;11.77;;;8.75;;
62696;SDS011;48761;42.680;23.312;2022-10-16T08:15:30;12.88;;;9.10;;
62696;SDS011;48761;42.680;23.312;2022-10-16T08:18:04;11.93;;;8.55;;
62696;SDS011;48761;42.680;23.312;2022-10-16T08:20:31;12.27;;;9.13;;
62696;SDS011;48761;42.680;23.312;2022-10-16T08:22:58;10.93;;;8.85;;
62696;SDS011;48761;42.680;23.312;2022-10-16T08:25:25;13.32;;;8.23;;
62696;SDS011;48761;42.680;23.312;2022-10-16T08:27:52;9.98;;;7.50;;
62696;SDS011;48761;42.680;23.312;2022-10-16T08:30:18;11.40;;;7.57;;
62696;SDS011;48761;42.680;23.312;2022-10-16T08:32:45;8.88;;;7.47;;
62696;SDS011;48761;42.680;23.312;2022-10-16T08:35:12;14.60;;;8.00;;
62696;SDS011;48761;42.680;23.312;2022-10-16T08:37:39;11.38;;;7.10;;
62696;SDS011;48761;42.680;23.312;2022-10-16T08:40:05;9.43;;;6.40;;
62696;SDS011;48761;42.680;23.312;2022-10-16T08:50:38;11.35;;;5.72;;
62696;SDS011;48761;42.680;23.312;2022-10-16T08:53:05;13.18;;;6.45;;
62696;SDS011;48761;42.680;23.312;2022-10-16T08:55:41;13.88;;;5.57;;
62696;SDS011;48761;42.680;23.312;2022-10-16T08:58:14;11.57;;;6.53;;
62696;SDS011;48761;42.680;23.312;2022-10-16T09:00:46;8.32;;;5.35;;
62696;SDS011;48761;42.680;23.312;2022-10-16T09:03:29;6.10;;;4.40;;
62696;SDS011;48761;42.680;23.312;2022-10-16T09:14:41;9.30;;;4.03;;
62696;SDS011;48761;42.680;23.312;2022-10-16T09:17:26;7.85;;;4.95;;
62696;SDS011;48761;42.680;23.312;2022-10-16T09:23:18;6.28;;;4.22;;
62696;SDS011;48761;42.680;23.312;2022-10-16T09:25:50;5.05;;;3.70;;
62696;SDS011;48761;42.680;23.312;2022-10-16T09:28:17;5.65;;;3.60;;
62696;SDS011;48761;42.680;23.312;2022-10-16T09:30:44;6.72;;;4.22;;
62696;SDS011;48761;42.680;23.312;2022-10-16T09:33:12;5.75;;;4.07;;
62696;SDS011;48761;42.680;23.312;2022-10-16T09:38:07;6.10;;;4.05;;
62696;SDS011;48761;42.680;23.312;2022-10-16T09:40:37;6.60;;;3.83;;
62696;SDS011;48761;42.680;23.312;2022-10-16T09:45:54;5.10;;;3.58;;
62696;SDS011;48761;42.680;23.312;2022-10-16T09:48:21;7.55;;;4.03;;
62696;SDS011;48761;42.680;23.312;2022-10-16T09:50:57;6.93;;;3.80;;
62696;SDS011;48761;42.680;23.312;2022-10-16T09:53:38;6.32;;;3.60;;
62696;SDS011;48761;42.680;23.312;2022-10-16T09:56:09;6.15;;;3.95;;
62696;SDS011;48761;42.680;23.312;2022-10-16T09:58:52;5.07;;;3.90;;
62696;SDS011;48761;42.680;23.312;2022-10-16T10:01:21;9.50;;;4.03;;
62696;SDS011;48761;42.680;23.312;2022-10-16T10:03:50;6.97;;;4.18;;
62696;SDS011;48761;42.680;23.312;2022-10-16T10:06:25;5.57;;;4.13;;
62696;SDS011;48761;42.680;23.312;2022-10-16T10:09:04;6.53;;;4.40;;
62696;SDS011;48761;42.680;23.312;2022-10-16T10:11:41;6.55;;;4.45;;
62696;SDS011;48761;42.680;23.312;2022-10-16T10:17:14;4.65;;;3.20;;
62696;SDS011;48761;42.680;23.312;2022-10-16T10:22:31;13.50;;;4.20;;
62696;SDS011;48761;42.680;23.312;2022-10-16T10:30:27;8.30;;;5.38;;
62696;SDS011;48761;42.680;23.312;2022-10-16T10:38:09;5.75;;;3.40;;
62696;SDS011;48761;42.680;23.312;2022-10-16T10:40:40;5.53;;;3.65;;
62696;SDS011;48761;42.680;23.312;2022-10-16T10:43:22;7.85;;;3.78;;
62696;SDS011;48761;42.680;23.312;2022-10-16T10:45:58;8.73;;;3.70;;
62696;SDS011;48761;42.680;23.312;2022-10-16T10:51:02;5.82;;;3.90;;
62696;SDS011;48761;42.680;23.312;2022-10-16T10:59:31;6.55;;;3.78;;
62696;SDS011;48761;42.680;23.312;2022-10-16T11:05:24;7.63;;;4.28;;
62696;SDS011;48761;42.680;23.312;2022-10-16T11:08:00;6.82;;;3.55;;
62696;SDS011;48761;42.680;23.312;2022-10-16T11:10:36;7.13;;;3.47;;
62696;SDS011;48761;42.680;23.312;2022-10-16T11:15:47;3.75;;;2.72;;
62696;SDS011;48761;42.680;23.312;2022-10-16T11:18:22;4.75;;;3.10;;
62696;SDS011;48761;42.680;23.312;2022-10-16T11:21:00;5.30;;;3.53;;
62696;SDS011;48761;42.680;23.312;2022-10-16T11:26:21;4.63;;;3.15;;
62696;SDS011;48761;42.680;23.312;2022-10-16T11:28:52;8.68;;;3.70;;
62696;SDS011;48761;42.680;23.312;2022-10-16T11:31:31;6.40;;;3.17;;
62696;SDS011;48761;42.680;23.312;2022-10-16T11:39:45;6.18;;;3.80;;
62696;SDS011;48761;42.680;23.312;2022-10-16T11:44:46;7.05;;;3.10;;
62696;SDS011;48761;42.680;23.312;2022-10-16T11:47:35;5.13;;;3.88;;
62696;SDS011;48761;42.680;23.312;2022-10-16T11:55:26;8.48;;;3.22;;
62696;SDS011;48761;42.680;23.312;2022-10-16T12:00:45;4.82;;;3.28;;
62696;SDS011;48761;42.680;23.312;2022-10-16T12:09:03;8.27;;;3.75;;
62696;SDS011;48761;42.680;23.312;2022-10-16T12:11:34;3.83;;;3.20;;
62696;SDS011;48761;42.680;23.312;2022-10-16T12:14:07;9.57;;;3.30;;
62696;SDS011;48761;42.680;23.312;2022-10-16T12:19:19;4.28;;;3.53;;
62696;SDS011;48761;42.680;23.312;2022-10-16T12:21:45;7.40;;;3.92;;
62696;SDS011;48761;42.680;23.312;2022-10-16T12:27:04;4.25;;;3.25;;
62696;SDS011;48761;42.680;23.312;2022-10-16T12:29:45;5.90;;;3.70;;
62696;SDS011;48761;42.680;23.312;2022-10-16T12:32:22;7.32;;;3.20;;
62696;SDS011;48761;42.680;23.312;2022-10-16T12:34:58;5.75;;;3.70;;
62696;SDS011;48761;42.680;23.312;2022-10-16T12:37:32;4.95;;;3.22;;
62696;SDS011;48761;42.680;23.312;2022-10-16T12:40:46;6.20;;;3.75;;
62696;SDS011;48761;42.680;23.312;2022-10-16T12:42:52;5.80;;;3.90;;
62696;SDS011;48761;42.680;23.312;2022-10-16T12:48:00;6.32;;;3.85;;
62696;SDS011;48761;42.680;23.312;2022-10-16T12:50:29;7.43;;;5.10;;
62696;SDS011;48761;42.680;23.312;2022-10-16T12:53:00;4.80;;;3.28;;
62696;SDS011;48761;42.680;23.312;2022-10-16T12:55:26;4.70;;;3.20;;
62696;SDS011;48761;42.680;23.312;2022-10-16T12:58:51;5.40;;;3.40;;
62696;SDS011;48761;42.680;23.312;2022-10-16T13:01:01;7.73;;;4.13;;
62696;SDS011;48761;42.680;23.312;2022-10-16T13:03:47;8.93;;;3.70;;
62696;SDS011;48761;42.680;23.312;2022-10-16T13:09:28;9.50;;;3.80;;
62696;SDS011;48761;42.680;23.312;2022-10-16T13:12:40;5.25;;;3.78;;
62696;SDS011;48761;42.680;23.312;2022-10-16T13:15:35;5.78;;;3.53;;
62696;SDS011;48761;42.680;23.312;2022-10-16T13:21:35;4.43;;;3.17;;
62696;SDS011;48761;42.680;23.312;2022-10-16T13:32:50;4.85;;;3.17;;
62696;SDS011;48761;42.680;23.312;2022-10-16T13:35:25;6.68;;;3.13;;
62696;SDS011;48761;42.680;23.312;2022-10-16T13:38:03;6.65;;;3.28;;
62696;SDS011;48761;42.680;23.312;2022-10-16T13:40:58;4.55;;;3.03;;
62696;SDS011;48761;42.680;23.312;2022-10-16T13:43:36;12.70;;;3.63;;
62696;SDS011;48761;42.680;23.312;2022-10-16T13:46:12;4.72;;;2.65;;
62696;SDS011;48761;42.680;23.312;2022-10-16T13:48:43;5.57;;;3.45;;
62696;SDS011;48761;42.680;23.312;2022-10-16T13:51:16;5.18;;;3.28;;
62696;SDS011;48761;42.680;23.312;2022-10-16T13:53:47;4.90;;;3.00;;
62696;SDS011;48761;42.680;23.312;2022-10-16T13:56:18;5.72;;;2.90;;
62696;SDS011;48761;42.680;23.312;2022-10-16T13:58:46;5.47;;;2.88;;
62696;SDS011;48761;42.680;23.312;2022-10-16T14:04:09;4.35;;;2.70;;
62696;SDS011;48761;42.680;23.312;2022-10-16T14:06:42;6.28;;;3.03;;
62696;SDS011;48761;42.680;23.312;2022-10-16T14:11:49;3.63;;;2.92;;
62696;SDS011;48761;42.680;23.312;2022-10-16T14:14:17;6.75;;;3.38;;
62696;SDS011;48761;42.680;23.312;2022-10-16T14:16:44;5.75;;;3.15;;
62696;SDS011;48761;42.680;23.312;2022-10-16T14:19:29;6.57;;;3.13;;
62696;SDS011;48761;42.680;23.312;2022-10-16T14:21:56;3.83;;;2.55;;
62696;SDS011;48761;42.680;23.312;2022-10-16T14:24:31;5.53;;;3.42;;
62696;SDS011;48761;42.680;23.312;2022-10-16T14:27:01;5.00;;;3.08;;
62696;SDS011;48761;42.680;23.312;2022-10-16T14:29:28;6.05;;;2.97;;
62696;SDS011;48761;42.680;23.312;2022-10-16T14:31:59;4.93;;;2.67;;
62696;SDS011;48761;42.680;23.312;2022-10-16T14:34:36;6.80;;;3.00;;
62696;SDS011;48761;42.680;23.312;2022-10-16T14:37:08;6.28;;;3.35;;
62696;SDS011;48761;42.680;23.312;2022-10-16T14:39:54;5.40;;;2.63;;
62696;SDS011;48761;42.680;23.312;2022-10-16T14:42:21;4.45;;;2.65;;
62696;SDS011;48761;42.680;23.312;2022-10-16T14:44:53;5.65;;;2.78;;
62696;SDS011;48761;42.680;23.312;2022-10-16T14:47:21;7.60;;;2.95;;
62696;SDS011;48761;42.680;23.312;2022-10-16T14:49:51;3.50;;;2.60;;
62696;SDS011;48761;42.680;23.312;2022-10-16T14:52:19;6.93;;;2.67;;
62696;SDS011;48761;42.680;23.312;2022-10-16T14:54:47;7.70;;;2.65;;
62696;SDS011;48761;42.680;23.312;2022-10-16T14:57:18;5.00;;;2.53;;
62696;SDS011;48761;42.680;23.312;2022-10-16T14:59:46;7.68;;;3.05;;
62696;SDS011;48761;42.680;23.312;2022-10-16T15:04:44;6.20;;;2.85;;
62696;SDS011;48761;42.680;23.312;2022-10-16T15:07:09;5.78;;;2.88;;
62696;SDS011;48761;42.680;23.312;2022-10-16T15:09:36;6.00;;;3.15;;
62696;SDS011;48761;42.680;23.312;2022-10-16T15:12:02;4.60;;;3.03;;
62696;SDS011;48761;42.680;23.312;2022-10-16T15:14:30;5.03;;;2.80;;
62696;SDS011;48761;42.680;23.312;2022-10-16T15:16:56;5.20;;;3.10;;
62696;SDS011;48761;42.680;23.312;2022-10-16T15:19:22;6.78;;;3.13;;
62696;SDS011;48761;42.680;23.312;2022-10-16T15:21:48;4.18;;;3.10;;
62696;SDS011;48761;42.680;23.312;2022-10-16T15:24:14;5.63;;;3.28;;
62696;SDS011;48761;42.680;23.312;2022-10-16T15:26:41;4.53;;;3.10;;
62696;SDS011;48761;42.680;23.312;2022-10-16T15:29:06;6.93;;;3.45;;
62696;SDS011;48761;42.680;23.312;2022-10-16T15:31:32;6.50;;;3.58;;
62696;SDS011;48761;42.680;23.312;2022-10-16T15:33:58;5.68;;;3.00;;
62696;SDS011;48761;42.680;23.312;2022-10-16T15:36:28;8.20;;;3.58;;
62696;SDS011;48761;42.680;23.312;2022-10-16T15:38:56;6.90;;;3.20;;
62696;SDS011;48761;42.680;23.312;2022-10-16T15:41:22;6.85;;;3.22;;
62696;SDS011;48761;42.680;23.312;2022-10-16T15:43:49;6.00;;;3.67;;
62696;SDS011;48761;42.680;23.312;2022-10-16T15:46:17;5.35;;;3.53;;
62696;SDS011;48761;42.680;23.312;2022-10-16T15:48:44;8.90;;;3.65;;
62696;SDS011;48761;42.680;23.312;2022-10-16T15:51:11;9.25;;;3.40;;
62696;SDS011;48761;42.680;23.312;2022-10-16T15:53:36;8.50;;;3.50;;
62696;SDS011;48761;42.680;23.312;2022-10-16T15:56:03;7.22;;;3.17;;
62696;SDS011;48761;42.680;23.312;2022-10-16T15:58:30;7.78;;;4.00;;
62696;SDS011;48761;42.680;23.312;2022-10-16T16:00:56;10.75;;;4.20;;
62696;SDS011;48761;42.680;23.312;2022-10-16T16:03:23;6.65;;;3.50;;
62696;SDS011;48761;42.680;23.312;2022-10-16T16:05:49;7.30;;;3.25;;
62696;SDS011;48761;42.680;23.312;2022-10-16T16:08:15;6.15;;;3.60;;
62696;SDS011;48761;42.680;23.312;2022-10-16T16:13:26;5.28;;;3.72;;
62696;SDS011;48761;42.680;23.312;2022-10-16T16:15:52;11.75;;;4.45;;
62696;SDS011;48761;42.680;23.312;2022-10-16T16:18:27;9.68;;;4.70;;
62696;SDS011;48761;42.680;23.312;2022-10-16T16:21:40;10.98;;;6.00;;
62696;SDS011;48761;42.680;23.312;2022-10-16T16:24:05;10.45;;;6.53;;
62696;SDS011;48761;42.680;23.312;2022-10-16T16:26:32;12.30;;;6.40;;
62696;SDS011;48761;42.680;23.312;2022-10-16T16:28:58;13.95;;;6.93;;
62696;SDS011;48761;42.680;23.312;2022-10-16T16:31:25;12.85;;;6.53;;
62696;SDS011;48761;42.680;23.312;2022-10-16T16:33:53;14.18;;;6.13;;
62696;SDS011;48761;42.680;23.312;2022-10-16T16:36:19;12.15;;;6.88;;
62696;SDS011;48761;42.680;23.312;2022-10-16T16:38:46;20.40;;;7.25;;
62696;SDS011;48761;42.680;23.312;2022-10-16T16:41:19;12.35;;;7.10;;
62696;SDS011;48761;42.680;23.312;2022-10-16T16:43:47;15.48;;;7.55;;
62696;SDS011;48761;42.680;23.312;2022-10-16T16:46:13;15.73;;;9.30;;
62696;SDS011;48761;42.680;23.312;2022-10-16T16:48:39;18.80;;;10.10;;